Time,TemperatureF,DewpointF,PressureIn,WindDirection,WindDirectionDegrees,WindSpeedMPH,WindSpeedGustMPH,Humidity,HourlyPrecipIn,Conditions,Clouds,dailyrainin,SolarRadiationWatts/m^2,SoftwareType,DateUTC
2013-08-26 00:01:00,58.1,50.2,29.62,NNW,345,0.0,0.0,75,0.00,,,0.00,0,WeatherCatV1.02B3,2013-08-26 07:01:00,
2013-08-26 00:06:00,57.7,49.8,29.62,NNW,345,0.0,0.0,75,0.00,,,0.00,0,WeatherCatV1.02B3,2013-08-26 07:06:00,
2013-08-26 00:11:00,57.4,49.5,29.62,NNW,345,0.0,1.0,75,0.00,,,0.00,0,WeatherCatV1.02B3,2013-08-26 07:11:00,
2013-08-26 00:16:00,56.9,49.4,29.62,NNW,345,0.0,0.0,76,0.00,,,0.00,0,WeatherCatV1.02B3,2013-08-26 07:16:00,
2013-08-26 00:21:00,57.1,48.9,29.62,NNW,345,0.0,0.0,74,0.00,,,0.00,0,WeatherCatV1.02B3,2013-08-26 07:21:00,
2013-08-26 00:26:00,56.6,48.8,29.62,NNW,345,0.0,0.0,75,0.00,,,0.00,0,WeatherCatV1.02B3,2013-08-26 07:26:00,
2013-08-26 00:31:00,56.8,48.6,29.62,NNW,345,0.0,0.0,74,0.00,,,0.00,0,WeatherCatV1.02B3,2013-08-26 07:31:00,
2013-08-26 00:36:00,56.0,48.2,29.62,NNW,345,0.0,0.0,75,0.00,,,0.00,0,WeatherCatV1.02B3,2013-08-26 07:36:00,
2013-08-26 00:41:00,56.2,48.7,29.62,NNW,345,0.0,0.0,76,0.00,,,0.00,0,WeatherCatV1.02B3,2013-08-26 07:41:00,
2013-08-26 00:46:00,56.1,47.9,29.62,NNW,345,0.0,0.0,74,0.00,,,0.00,0,WeatherCatV1.02B3,2013-08-26 07:46:00,
2013-08-26 00:51:00,56.1,48.6,29.62,NNW,345,0.0,0.0,76,0.00,,,0.00,0,WeatherCatV1.02B3,2013-08-26 07:51:00,
2013-08-26 00:56:00,55.7,47.9,29.62,NNW,345,0.0,0.0,75,0.00,,,0.00,0,WeatherCatV1.02B3,2013-08-26 07:56:00,
2013-08-26 01:01:00,55.6,47.8,29.62,NNW,345,0.0,0.0,75,0.00,,,0.00,0,WeatherCatV1.02B3,2013-08-26 08:01:00,
2013-08-26 01:07:00,55.6,47.4,29.62,NNW,345,0.0,0.0,74,0.00,,,0.00,0,WeatherCatV1.02B3,2013-08-26 08:07:00,
2013-08-26 01:12:00,55.3,47.5,29.62,NNW,345,0.0,0.0,75,0.00,,,0.00,0,WeatherCatV1.02B3,2013-08-26 08:12:00,
2013-08-26 01:17:00,55.5,47.3,29.62,NNW,345,0.0,0.0,74,0.00,,,0.00,0,WeatherCatV1.02B3,2013-08-26 08:17:00,
2013-08-26 01:22:00,55.3,47.2,29.62,NNW,345,0.0,0.0,74,0.00,,,0.00,0,WeatherCatV1.02B3,2013-08-26 08:22:00,
2013-08-26 01:27:00,55.8,47.3,29.62,NNW,345,0.0,0.0,73,0.00,,,0.00,0,WeatherCatV1.02B3,2013-08-26 08:27:00,
2013-08-26 01:32:00,55.8,46.9,29.62,NNW,345,0.0,0.0,72,0.00,,,0.00,0,WeatherCatV1.02B3,2013-08-26 08:32:00,
2013-08-26 01:37:00,55.4,46.9,29.62,NNW,345,0.0,0.0,73,0.00,,,0.00,0,WeatherCatV1.02B3,2013-08-26 08:37:00,
2013-08-26 01:42:00,55.7,47.2,29.62,NNW,345,0.0,0.0,73,0.00,,,0.00,0,WeatherCatV1.02B3,2013-08-26 08:42:00,
2013-08-26 01:47:00,55.4,46.9,29.62,NNW,345,0.0,0.0,73,0.00,,,0.00,0,WeatherCatV1.02B3,2013-08-26 08:47:00,
2013-08-26 01:52:00,55.3,46.8,29.62,NNW,345,0.0,0.0,73,0.00,,,0.00,0,WeatherCatV1.02B3,2013-08-26 08:52:00,
2013-08-26 01:57:00,55.2,46.3,29.62,NNW,345,0.0,0.0,72,0.00,,,0.00,0,WeatherCatV1.02B3,2013-08-26 08:57:00,
2013-08-26 02:02:00,54.8,46.3,29.62,NNW,345,0.0,0.0,73,0.00,,,0.00,0,WeatherCatV1.02B3,2013-08-26 09:02:00,
2013-08-26 02:07:00,54.8,46.7,29.62,NNW,345,0.0,1.0,74,0.00,,,0.00,0,WeatherCatV1.02B3,2013-08-26 09:07:00,
2013-08-26 02:12:00,54.8,46.7,29.62,NNW,345,0.0,0.0,74,0.00,,,0.00,0,WeatherCatV1.02B3,2013-08-26 09:12:00,
2013-08-26 02:17:00,54.9,46.4,29.62,NNW,345,0.0,0.0,73,0.00,,,0.00,0,WeatherCatV1.02B3,2013-08-26 09:17:00,
2013-08-26 02:22:00,54.8,46.3,29.62,NNW,345,0.0,1.0,73,0.00,,,0.00,0,WeatherCatV1.02B3,2013-08-26 09:22:00,
2013-08-26 02:27:00,54.2,45.7,29.62,NNW,345,0.0,0.0,73,0.00,,,0.00,0,WeatherCatV1.02B3,2013-08-26 09:27:00,
2013-08-26 02:32:00,54.3,45.8,29.62,NNW,345,0.0,0.0,73,0.00,,,0.00,0,WeatherCatV1.02B3,2013-08-26 09:32:00,
2013-08-26 02:37:00,54.5,46.0,29.62,NNW,345,0.0,1.0,73,0.00,,,0.00,0,WeatherCatV1.02B3,2013-08-26 09:37:00,
2013-08-26 02:42:00,54.3,45.8,29.62,NNW,345,0.0,0.0,73,0.00,,,0.00,0,WeatherCatV1.02B3,2013-08-26 09:42:00,
2013-08-26 02:47:00,53.9,45.4,29.62,NNW,345,0.0,0.0,73,0.00,,,0.00,0,WeatherCatV1.02B3,2013-08-26 09:47:00,
2013-08-26 02:52:00,54.1,45.3,29.62,North,0,0.0,3.0,72,0.00,,,0.00,0,WeatherCatV1.02B3,2013-08-26 09:52:00,
2013-08-26 02:57:00,55.2,45.2,29.62,NE,34,2.0,4.0,69,0.00,,,0.00,0,WeatherCatV1.02B3,2013-08-26 09:57:00,
2013-08-26 03:02:00,55.6,44.8,29.62,NE,47,0.0,1.0,67,0.00,,,0.00,0,WeatherCatV1.02B3,2013-08-26 10:02:00,
2013-08-26 03:07:00,54.5,44.9,29.62,NE,47,0.0,0.0,70,0.00,,,0.00,0,WeatherCatV1.02B3,2013-08-26 10:07:00,
2013-08-26 03:12:00,53.9,44.3,29.62,NE,47,0.0,0.0,70,0.00,,,0.00,0,WeatherCatV1.02B3,2013-08-26 10:12:00,
2013-08-26 03:17:00,53.2,43.7,29.62,NE,47,0.0,0.0,70,0.00,,,0.00,0,WeatherCatV1.02B3,2013-08-26 10:17:00,
2013-08-26 03:22:00,52.7,43.2,29.62,NE,47,0.0,0.0,70,0.00,,,0.00,0,WeatherCatV1.02B3,2013-08-26 10:22:00,
2013-08-26 03:27:00,53.0,43.9,29.62,NE,47,0.0,0.0,71,0.00,,,0.00,0,WeatherCatV1.02B3,2013-08-26 10:27:00,
2013-08-26 03:32:00,52.4,43.3,29.62,NE,47,0.0,0.0,71,0.00,,,0.00,0,WeatherCatV1.02B3,2013-08-26 10:32:00,
2013-08-26 03:37:00,52.1,43.4,29.62,NE,47,0.0,0.0,72,0.00,,,0.00,0,WeatherCatV1.02B3,2013-08-26 10:37:00,
2013-08-26 03:42:00,52.1,43.0,29.62,NE,47,0.0,0.0,71,0.00,,,0.00,0,WeatherCatV1.02B3,2013-08-26 10:42:00,
2013-08-26 03:47:00,52.3,43.2,29.62,NE,47,0.0,0.0,71,0.00,,,0.00,0,WeatherCatV1.02B3,2013-08-26 10:47:00,
2013-08-26 03:52:00,52.2,42.7,29.62,NE,47,0.0,0.0,70,0.00,,,0.00,0,WeatherCatV1.02B3,2013-08-26 10:52:00,
2013-08-26 03:57:00,52.3,43.2,29.62,NE,47,0.0,0.0,71,0.00,,,0.00,0,WeatherCatV1.02B3,2013-08-26 10:57:00,
2013-08-26 04:02:00,51.7,42.6,29.62,NE,47,0.0,0.0,71,0.00,,,0.00,0,WeatherCatV1.02B3,2013-08-26 11:02:00,
2013-08-26 04:07:00,52.1,42.6,29.62,NE,47,0.0,0.0,70,0.00,,,0.00,0,WeatherCatV1.02B3,2013-08-26 11:07:00,
2013-08-26 04:12:00,52.4,42.5,29.62,NE,47,0.0,0.0,69,0.00,,,0.00,0,WeatherCatV1.02B3,2013-08-26 11:12:00,
2013-08-26 04:17:00,52.3,42.1,29.62,NE,47,0.0,1.0,68,0.00,,,0.00,0,WeatherCatV1.02B3,2013-08-26 11:17:00,
2013-08-26 04:22:00,52.4,43.3,29.62,NNE,12,0.0,2.0,71,0.00,,,0.00,0,WeatherCatV1.02B3,2013-08-26 11:22:00,
2013-08-26 04:27:00,52.9,42.6,29.62,NNW,336,0.0,1.0,68,0.00,,,0.00,0,WeatherCatV1.02B3,2013-08-26 11:27:00,
2013-08-26 04:32:00,52.7,42.8,29.62,North,355,0.0,0.0,69,0.00,,,0.00,0,WeatherCatV1.02B3,2013-08-26 11:32:00,
2013-08-26 04:37:00,52.2,42.7,29.62,North,355,0.0,0.0,70,0.00,,,0.00,0,WeatherCatV1.02B3,2013-08-26 11:37:00,
2013-08-26 04:42:00,51.5,42.0,29.62,North,355,0.0,0.0,70,0.00,,,0.00,0,WeatherCatV1.02B3,2013-08-26 11:42:00,
2013-08-26 04:47:00,51.4,42.7,29.62,North,355,0.0,0.0,72,0.00,,,0.00,0,WeatherCatV1.02B3,2013-08-26 11:47:00,
2013-08-26 04:52:00,51.5,42.4,29.62,North,355,0.0,1.0,71,0.00,,,0.00,0,WeatherCatV1.02B3,2013-08-26 11:52:00,
2013-08-26 04:57:00,51.3,42.2,29.62,North,355,0.0,0.0,71,0.00,,,0.00,0,WeatherCatV1.02B3,2013-08-26 11:57:00,
2013-08-26 05:05:00,51.6,42.5,29.62,North,355,0.0,0.0,71,0.00,,,0.00,0,WeatherCatV1.02B3,2013-08-26 12:05:00,
2013-08-26 05:10:00,52.2,42.0,29.62,NNW,331,0.0,0.0,68,0.00,,,0.00,0,WeatherCatV1.02B3,2013-08-26 12:10:00,
2013-08-26 05:15:00,52.1,41.9,29.62,NNW,340,0.0,0.0,68,0.00,,,0.00,0,WeatherCatV1.02B3,2013-08-26 12:15:00,
2013-08-26 05:20:00,51.5,41.3,29.62,NNW,340,0.0,0.0,68,0.00,,,0.00,0,WeatherCatV1.02B3,2013-08-26 12:20:00,
2013-08-26 05:25:00,51.0,41.6,29.62,NNW,340,0.0,0.0,70,0.00,,,0.00,0,WeatherCatV1.02B3,2013-08-26 12:25:00,
2013-08-26 05:30:00,51.2,41.8,29.62,NNW,340,0.0,0.0,70,0.00,,,0.00,0,WeatherCatV1.02B3,2013-08-26 12:30:00,
2013-08-26 05:35:00,50.6,41.5,29.62,NNW,340,0.0,0.0,71,0.00,,,0.00,0,WeatherCatV1.02B3,2013-08-26 12:35:00,
2013-08-26 05:40:00,50.5,41.8,29.62,NNW,340,0.0,0.0,72,0.00,,,0.00,0,WeatherCatV1.02B3,2013-08-26 12:40:00,
2013-08-26 05:45:00,50.3,42.0,29.62,NNW,340,0.0,1.0,73,0.00,,,0.00,0,WeatherCatV1.02B3,2013-08-26 12:45:00,
2013-08-26 05:50:00,50.3,41.6,29.62,NNW,340,0.0,0.0,72,0.00,,,0.00,0,WeatherCatV1.02B3,2013-08-26 12:50:00,
2013-08-26 05:55:00,50.9,41.5,29.62,NNW,343,0.0,0.0,70,0.00,,,0.00,0,WeatherCatV1.02B3,2013-08-26 12:55:00,
2013-08-26 06:00:00,50.7,40.9,29.62,NNW,343,0.0,1.0,69,0.00,,,0.00,0,WeatherCatV1.02B3,2013-08-26 13:00:00,
2013-08-26 06:05:00,51.0,41.6,29.62,NNW,343,0.0,0.0,70,0.00,,,0.00,0,WeatherCatV1.02B3,2013-08-26 13:05:00,
2013-08-26 06:10:00,50.5,41.5,29.62,NNW,343,0.0,0.0,71,0.00,,,0.00,0,WeatherCatV1.02B3,2013-08-26 13:10:00,
2013-08-26 06:15:00,49.7,41.0,29.62,NNW,343,0.0,0.0,72,0.00,,,0.00,0,WeatherCatV1.02B3,2013-08-26 13:15:00,
2013-08-26 06:20:00,49.6,41.3,29.62,NNW,343,0.0,0.0,73,0.00,,,0.00,0,WeatherCatV1.02B3,2013-08-26 13:20:00,
2013-08-26 06:25:00,50.0,41.3,29.62,NNW,343,0.0,0.0,72,0.00,,,0.00,0,WeatherCatV1.02B3,2013-08-26 13:25:00,
2013-08-26 06:30:00,50.1,41.4,29.62,NNW,343,0.0,0.0,72,0.00,,,0.00,0,WeatherCatV1.02B3,2013-08-26 13:30:00,
2013-08-26 06:35:00,49.9,40.9,29.62,NNW,343,0.0,0.0,71,0.00,,,0.00,5,WeatherCatV1.02B3,2013-08-26 13:35:00,
2013-08-26 06:40:00,50.3,40.9,29.62,NNW,343,0.0,0.0,70,0.00,,,0.00,9,WeatherCatV1.02B3,2013-08-26 13:40:00,
2013-08-26 06:45:00,50.9,41.5,29.62,NNW,343,0.0,0.0,70,0.00,,,0.00,11,WeatherCatV1.02B3,2013-08-26 13:45:00,
2013-08-26 06:50:00,51.0,41.2,29.62,NNW,343,0.0,1.0,69,0.00,,,0.00,12,WeatherCatV1.02B3,2013-08-26 13:50:00,
2013-08-26 06:55:00,50.7,40.9,29.62,NNW,343,0.0,0.0,69,0.00,,,0.00,14,WeatherCatV1.02B3,2013-08-26 13:55:00,
2013-08-26 07:00:00,51.2,41.4,29.62,NNW,343,0.0,0.0,69,0.00,,,0.00,16,WeatherCatV1.02B3,2013-08-26 14:00:00,
2013-08-26 07:05:00,51.2,41.4,29.62,NNW,343,0.0,0.0,69,0.00,,,0.00,18,WeatherCatV1.02B3,2013-08-26 14:05:00,
2013-08-26 07:10:00,51.4,41.2,29.62,NNW,343,0.0,0.0,68,0.00,,,0.00,19,WeatherCatV1.02B3,2013-08-26 14:10:00,
2013-08-26 07:16:00,51.5,42.0,29.62,NNW,343,0.0,0.0,70,0.00,,,0.00,21,WeatherCatV1.02B3,2013-08-26 14:16:00,
2013-08-26 07:21:00,52.0,42.1,29.62,NNW,343,0.0,0.0,69,0.00,,,0.00,25,WeatherCatV1.02B3,2013-08-26 14:21:00,
2013-08-26 07:26:00,52.5,42.2,29.62,NNW,343,0.0,0.0,68,0.00,,,0.00,26,WeatherCatV1.02B3,2013-08-26 14:26:00,
2013-08-26 07:31:00,53.9,43.2,29.62,NNW,343,0.0,0.0,67,0.00,,,0.00,25,WeatherCatV1.02B3,2013-08-26 14:31:00,
2013-08-26 07:36:00,54.6,43.5,29.62,NNW,344,0.0,0.0,66,0.00,,,0.00,26,WeatherCatV1.02B3,2013-08-26 14:36:00,
2013-08-26 07:41:00,55.6,44.0,29.62,NNW,344,0.0,0.0,65,0.00,,,0.00,26,WeatherCatV1.02B3,2013-08-26 14:41:00,
2013-08-26 07:46:00,56.4,44.4,29.62,NNW,344,0.0,0.0,64,0.00,,,0.00,28,WeatherCatV1.02B3,2013-08-26 14:46:00,
2013-08-26 07:51:00,57.4,44.5,29.62,NNW,344,0.0,0.0,62,0.00,,,0.00,32,WeatherCatV1.02B3,2013-08-26 14:51:00,
2013-08-26 07:56:00,57.6,43.8,29.62,NNW,344,0.0,0.0,60,0.00,,,0.00,32,WeatherCatV1.02B3,2013-08-26 14:56:00,
2013-08-26 08:01:00,58.4,43.2,29.62,NNW,344,0.0,0.0,57,0.00,,,0.00,39,WeatherCatV1.02B3,2013-08-26 15:01:00,
2013-08-26 08:06:00,59.6,42.9,29.62,NNW,344,0.0,0.0,54,0.00,,,0.00,42,WeatherCatV1.02B3,2013-08-26 15:06:00,
2013-08-26 08:11:00,60.3,43.1,29.62,NNW,344,0.0,0.0,53,0.00,,,0.00,60,WeatherCatV1.02B3,2013-08-26 15:11:00,
2013-08-26 08:16:00,61.8,42.4,29.62,NNW,344,0.0,0.0,49,0.00,,,0.00,37,WeatherCatV1.02B3,2013-08-26 15:16:00,
2013-08-26 08:21:00,62.7,42.7,29.62,NNW,344,0.0,1.0,48,0.00,,,0.00,130,WeatherCatV1.02B3,2013-08-26 15:21:00,
2013-08-26 08:26:00,63.6,40.7,29.62,NNW,344,0.0,0.0,43,0.00,,,0.00,149,WeatherCatV1.02B3,2013-08-26 15:26:00,
2013-08-26 08:31:00,65.2,42.1,29.62,NNW,344,0.0,0.0,43,0.00,,,0.00,229,WeatherCatV1.02B3,2013-08-26 15:31:00,
2013-08-26 08:36:00,66.2,43.0,29.62,NNE,15,0.0,1.0,43,0.00,,,0.00,325,WeatherCatV1.02B3,2013-08-26 15:36:00,
2013-08-26 08:41:00,66.8,43.0,29.62,NNE,15,0.0,0.0,42,0.00,,,0.00,373,WeatherCatV1.02B3,2013-08-26 15:41:00,
2013-08-26 08:46:00,68.4,41.8,29.62,ESE,109,0.0,2.0,38,0.00,,,0.00,387,WeatherCatV1.02B3,2013-08-26 15:46:00,
2013-08-26 08:51:00,70.0,43.2,29.62,ESE,109,1.0,1.0,38,0.00,,,0.00,403,WeatherCatV1.02B3,2013-08-26 15:51:00,
2013-08-26 08:56:00,71.6,41.7,29.62,WSW,248,0.0,1.0,34,0.00,,,0.00,417,WeatherCatV1.02B3,2013-08-26 15:56:00,
2013-08-26 09:01:00,72.7,41.1,29.62,WSW,248,0.0,1.0,32,0.00,,,0.00,432,WeatherCatV1.02B3,2013-08-26 16:01:00,
2013-08-26 09:06:00,74.0,41.4,29.62,WSW,248,0.0,0.0,31,0.00,,,0.00,446,WeatherCatV1.02B3,2013-08-26 16:06:00,
2013-08-26 09:11:00,74.7,42.0,29.62,WSW,248,0.0,1.0,31,0.00,,,0.00,464,WeatherCatV1.02B3,2013-08-26 16:11:00,
2013-08-26 09:16:00,76.1,41.5,29.62,ENE,77,0.0,1.0,29,0.00,,,0.00,478,WeatherCatV1.02B3,2013-08-26 16:16:00,
2013-08-26 09:21:00,77.1,41.5,29.62,ENE,77,0.0,1.0,28,0.00,,,0.00,494,WeatherCatV1.02B3,2013-08-26 16:21:00,
2013-08-26 09:26:00,78.8,42.0,29.62,ENE,77,0.0,1.0,27,0.00,,,0.00,510,WeatherCatV1.02B3,2013-08-26 16:26:00,
2013-08-26 09:31:00,80.0,41.0,29.62,East,88,0.0,1.0,25,0.00,,,0.00,522,WeatherCatV1.02B3,2013-08-26 16:31:00,
2013-08-26 09:36:00,80.8,40.6,29.62,East,90,0.0,1.0,24,0.00,,,0.00,540,WeatherCatV1.02B3,2013-08-26 16:36:00,
2013-08-26 09:41:00,81.7,41.4,29.62,WSW,257,0.0,1.0,24,0.00,,,0.00,552,WeatherCatV1.02B3,2013-08-26 16:41:00,
2013-08-26 09:46:00,82.9,42.4,29.62,NNW,348,0.0,0.0,24,0.00,,,0.00,570,WeatherCatV1.02B3,2013-08-26 16:46:00,
2013-08-26 09:51:00,83.9,41.0,29.62,South,180,0.0,1.0,22,0.00,,,0.00,584,WeatherCatV1.02B3,2013-08-26 16:51:00,
2013-08-26 09:56:00,84.6,43.8,29.62,North,0,0.0,2.0,24,0.00,,,0.00,599,WeatherCatV1.02B3,2013-08-26 16:56:00,
2013-08-26 10:01:00,85.3,42.1,29.62,West,267,1.0,2.0,22,0.00,,,0.00,610,WeatherCatV1.02B3,2013-08-26 17:01:00,
2013-08-26 10:06:00,86.0,40.2,29.62,East,89,0.0,1.0,20,0.00,,,0.00,624,WeatherCatV1.02B3,2013-08-26 17:06:00,
2013-08-26 10:11:00,86.8,40.9,29.62,WSW,252,1.0,3.0,20,0.00,,,0.00,636,WeatherCatV1.02B3,2013-08-26 17:11:00,
2013-08-26 10:16:00,87.7,41.6,29.62,South,186,0.0,1.0,20,0.00,,,0.00,647,WeatherCatV1.02B3,2013-08-26 17:16:00,
2013-08-26 10:21:00,88.1,44.4,29.62,West,279,2.0,3.0,22,0.00,,,0.00,661,WeatherCatV1.02B3,2013-08-26 17:21:00,
2013-08-26 10:26:00,88.3,43.4,29.62,NW,312,0.0,4.0,21,0.00,,,0.00,671,WeatherCatV1.02B3,2013-08-26 17:26:00,
2013-08-26 10:31:00,88.4,43.5,29.62,WNW,303,2.0,4.0,21,0.00,,,0.00,689,WeatherCatV1.02B3,2013-08-26 17:31:00,
2013-08-26 10:36:00,89.7,43.3,29.62,West,267,2.0,5.0,20,0.00,,,0.00,698,WeatherCatV1.02B3,2013-08-26 17:36:00,
2013-08-26 10:41:00,91.0,46.8,29.62,WSW,252,3.0,3.0,22,0.00,,,0.00,714,WeatherCatV1.02B3,2013-08-26 17:41:00,
2013-08-26 10:46:00,91.3,47.1,29.62,West,276,3.0,6.0,22,0.00,,,0.00,717,WeatherCatV1.02B3,2013-08-26 17:46:00,
2013-08-26 10:51:00,91.5,48.4,29.62,NW,316,3.0,6.0,23,0.00,,,0.00,726,WeatherCatV1.02B3,2013-08-26 17:51:00,
2013-08-26 10:56:00,92.1,51.2,29.62,West,280,5.0,5.0,25,0.00,,,0.00,740,WeatherCatV1.02B3,2013-08-26 17:56:00,
2013-08-26 11:01:00,92.3,50.2,29.62,WNW,297,3.0,5.0,24,0.00,,,0.00,747,WeatherCatV1.02B3,2013-08-26 18:01:00,
2013-08-26 11:06:00,92.0,51.1,29.62,NNE,17,2.0,7.0,25,0.00,,,0.00,758,WeatherCatV1.02B3,2013-08-26 18:06:00,
2013-08-26 11:11:00,92.5,51.5,29.62,NW,325,3.0,4.0,25,0.00,,,0.00,765,WeatherCatV1.02B3,2013-08-26 18:11:00,
2013-08-26 11:16:00,93.6,52.4,29.62,NNE,15,1.0,2.0,25,0.00,,,0.00,772,WeatherCatV1.02B3,2013-08-26 18:16:00,
2013-08-26 11:21:00,93.7,53.6,29.62,NNW,347,1.0,3.0,26,0.00,,,0.00,779,WeatherCatV1.02B3,2013-08-26 18:21:00,
2013-08-26 11:26:00,93.7,52.5,29.62,WSW,257,3.0,5.0,25,0.00,,,0.00,788,WeatherCatV1.02B3,2013-08-26 18:26:00,
2013-08-26 11:31:00,93.8,52.6,29.62,NW,306,0.0,5.0,25,0.00,,,0.00,791,WeatherCatV1.02B3,2013-08-26 18:31:00,
2013-08-26 11:36:00,94.1,53.9,29.62,East,93,5.0,5.0,26,0.00,,,0.00,803,WeatherCatV1.02B3,2013-08-26 18:36:00,
2013-08-26 11:41:00,94.9,55.6,29.62,East,80,0.0,2.0,27,0.00,,,0.00,807,WeatherCatV1.02B3,2013-08-26 18:41:00,
2013-08-26 11:46:00,95.8,53.2,29.62,ENE,63,2.0,3.0,24,0.00,,,0.00,816,WeatherCatV1.02B3,2013-08-26 18:46:00,
2013-08-26 11:51:00,95.4,53.9,29.62,SSE,159,2.0,4.0,25,0.00,,,0.00,823,WeatherCatV1.02B3,2013-08-26 18:51:00,
2013-08-26 11:56:00,94.8,52.3,29.62,WNW,285,3.0,6.0,24,0.00,,,0.00,826,WeatherCatV1.02B3,2013-08-26 18:56:00,
2013-08-26 12:01:00,94.7,54.4,29.62,North,9,2.0,5.0,26,0.00,,,0.00,830,WeatherCatV1.02B3,2013-08-26 19:01:00,
2013-08-26 12:06:00,94.4,57.2,29.62,North,351,2.0,2.0,29,0.00,,,0.00,833,WeatherCatV1.02B3,2013-08-26 19:06:00,
2013-08-26 12:11:00,94.6,57.4,29.62,East,98,2.0,3.0,29,0.00,,,0.00,833,WeatherCatV1.02B3,2013-08-26 19:11:00,
2013-08-26 12:16:00,94.8,57.5,29.62,NW,309,1.0,4.0,29,0.00,,,0.00,838,WeatherCatV1.02B3,2013-08-26 19:16:00,
2013-08-26 12:21:00,95.0,58.6,29.62,NNE,32,2.0,3.0,30,0.00,,,0.00,846,WeatherCatV1.02B3,2013-08-26 19:21:00,
2013-08-26 12:26:00,95.1,57.8,29.62,ENE,63,4.0,10.0,29,0.00,,,0.00,844,WeatherCatV1.02B3,2013-08-26 19:26:00,
2013-08-26 12:31:00,94.2,58.9,29.62,NW,319,8.0,9.0,31,0.00,,,0.00,853,WeatherCatV1.02B3,2013-08-26 19:31:00,
2013-08-26 12:36:00,93.3,59.0,29.62,ENE,59,1.0,7.0,32,0.00,,,0.00,849,WeatherCatV1.02B3,2013-08-26 19:36:00,
2013-08-26 12:41:00,93.5,59.2,29.62,South,181,4.0,7.0,32,0.00,,,0.00,858,WeatherCatV1.02B3,2013-08-26 19:41:00,
2013-08-26 12:46:00,93.7,59.3,29.62,ENE,62,4.0,5.0,32,0.00,,,0.00,856,WeatherCatV1.02B3,2013-08-26 19:46:00,
2013-08-26 12:51:00,93.3,57.2,29.62,West,272,2.0,7.0,30,0.00,,,0.00,853,WeatherCatV1.02B3,2013-08-26 19:51:00,
2013-08-26 12:56:00,93.2,58.9,29.62,NNW,348,1.0,3.0,32,0.00,,,0.00,853,WeatherCatV1.02B3,2013-08-26 19:56:00,
2013-08-26 13:01:00,94.0,56.8,29.62,WSW,242,5.0,5.0,29,0.00,,,0.00,856,WeatherCatV1.02B3,2013-08-26 20:01:00,
2013-08-26 13:06:00,93.3,57.2,29.62,East,92,2.0,6.0,30,0.00,,,0.00,853,WeatherCatV1.02B3,2013-08-26 20:06:00,
2013-08-26 13:11:00,93.3,57.2,29.62,NW,316,2.0,3.0,30,0.00,,,0.00,854,WeatherCatV1.02B3,2013-08-26 20:11:00,
2013-08-26 13:16:00,93.5,56.4,29.62,NNW,340,0.0,5.0,29,0.00,,,0.00,853,WeatherCatV1.02B3,2013-08-26 20:16:00,
2013-08-26 13:21:00,93.3,57.2,29.62,WSW,247,2.0,8.0,30,0.00,,,0.00,853,WeatherCatV1.02B3,2013-08-26 20:21:00,
2013-08-26 13:26:00,93.7,58.4,29.62,North,355,3.0,6.0,31,0.00,,,0.00,851,WeatherCatV1.02B3,2013-08-26 20:26:00,
2013-08-26 13:31:00,92.7,59.3,29.62,NW,326,1.0,6.0,33,0.00,,,0.00,853,WeatherCatV1.02B3,2013-08-26 20:31:00,
2013-08-26 13:37:00,93.3,59.9,29.62,SSE,149,3.0,6.0,33,0.00,,,0.00,844,WeatherCatV1.02B3,2013-08-26 20:37:00,
2013-08-26 13:42:00,92.2,59.7,29.62,NW,326,2.0,6.0,34,0.00,,,0.00,840,WeatherCatV1.02B3,2013-08-26 20:42:00,
2013-08-26 13:47:00,93.3,59.9,29.62,North,355,6.0,6.0,33,0.00,,,0.00,835,WeatherCatV1.02B3,2013-08-26 20:47:00,
2013-08-26 13:52:00,93.6,60.1,29.62,ENE,70,3.0,3.0,33,0.00,,,0.00,831,WeatherCatV1.02B3,2013-08-26 20:52:00,
2013-08-26 13:57:00,94.9,58.6,29.62,NNW,344,2.0,4.0,30,0.00,,,0.00,833,WeatherCatV1.02B3,2013-08-26 20:57:00,
2013-08-26 14:02:00,94.7,58.4,29.62,West,267,3.0,3.0,30,0.00,,,0.00,831,WeatherCatV1.02B3,2013-08-26 21:02:00,
2013-08-26 14:07:00,94.6,57.4,29.62,NW,326,1.0,2.0,29,0.00,,,0.00,821,WeatherCatV1.02B3,2013-08-26 21:07:00,
2013-08-26 14:12:00,94.3,59.0,29.62,ENE,60,3.0,3.0,31,0.00,,,0.00,814,WeatherCatV1.02B3,2013-08-26 21:12:00,
2013-08-26 14:17:00,95.7,56.3,29.62,NNW,343,1.0,6.0,27,0.00,,,0.00,814,WeatherCatV1.02B3,2013-08-26 21:17:00,
2013-08-26 14:22:00,94.5,54.3,29.62,NNW,336,0.0,4.0,26,0.00,,,0.00,810,WeatherCatV1.02B3,2013-08-26 21:22:00,
2013-08-26 14:27:00,93.9,54.8,29.62,NW,313,1.0,4.0,27,0.00,,,0.00,807,WeatherCatV1.02B3,2013-08-26 21:27:00,
2013-08-26 14:32:00,94.6,52.2,29.62,North,355,0.0,3.0,24,0.00,,,0.00,798,WeatherCatV1.02B3,2013-08-26 21:32:00,
2013-08-26 14:37:00,94.7,51.1,29.62,West,273,1.0,3.0,23,0.00,,,0.00,795,WeatherCatV1.02B3,2013-08-26 21:37:00,
2013-08-26 14:42:00,94.3,48.3,29.62,NNW,343,2.0,3.0,21,0.00,,,0.00,789,WeatherCatV1.02B3,2013-08-26 21:42:00,
2013-08-26 14:47:00,94.6,48.6,29.62,SW,232,1.0,3.0,21,0.00,,,0.00,779,WeatherCatV1.02B3,2013-08-26 21:47:00,
2013-08-26 14:52:00,93.8,43.8,29.62,ESE,123,3.0,6.0,18,0.00,,,0.00,770,WeatherCatV1.02B3,2013-08-26 21:52:00,
2013-08-26 14:57:00,94.2,41.1,29.62,ENE,70,3.0,8.0,16,0.00,,,0.00,763,WeatherCatV1.02B3,2013-08-26 21:57:00,
2013-08-26 15:02:00,94.6,47.3,29.62,ENE,74,2.0,2.0,20,0.00,,,0.00,756,WeatherCatV1.02B3,2013-08-26 22:02:00,
2013-08-26 15:07:00,94.5,44.4,29.62,WSW,258,2.0,4.0,18,0.00,,,0.00,744,WeatherCatV1.02B3,2013-08-26 22:07:00,
2013-08-26 15:12:00,94.9,38.2,29.62,NE,55,2.0,7.0,14,0.00,,,0.00,728,WeatherCatV1.02B3,2013-08-26 22:12:00,
2013-08-26 15:17:00,94.9,41.6,29.62,ESE,104,4.0,7.0,16,0.00,,,0.00,722,WeatherCatV1.02B3,2013-08-26 22:17:00,
2013-08-26 15:22:00,94.5,39.7,29.62,NNE,17,4.0,4.0,15,0.00,,,0.00,707,WeatherCatV1.02B3,2013-08-26 22:22:00,
2013-08-26 15:27:00,94.9,43.2,29.62,ENE,72,2.0,2.0,17,0.00,,,0.00,696,WeatherCatV1.02B3,2013-08-26 22:27:00,
2013-08-26 15:32:00,94.9,41.6,29.62,NW,320,1.0,6.0,16,0.00,,,0.00,684,WeatherCatV1.02B3,2013-08-26 22:32:00,
2013-08-26 15:37:00,94.5,41.3,29.62,ENE,69,3.0,5.0,16,0.00,,,0.00,670,WeatherCatV1.02B3,2013-08-26 22:37:00,
2013-08-26 15:42:00,94.5,39.7,29.62,WSW,246,0.0,5.0,15,0.00,,,0.00,657,WeatherCatV1.02B3,2013-08-26 22:42:00,
2013-08-26 15:47:00,94.5,42.9,29.62,East,86,0.0,8.0,17,0.00,,,0.00,643,WeatherCatV1.02B3,2013-08-26 22:47:00,
2013-08-26 15:52:00,94.9,40.0,29.62,ENE,66,0.0,6.0,15,0.00,,,0.00,631,WeatherCatV1.02B3,2013-08-26 22:52:00,
2013-08-26 15:57:00,94.4,41.2,29.62,NE,46,1.0,3.0,16,0.00,,,0.00,621,WeatherCatV1.02B3,2013-08-26 22:57:00,
2013-08-26 16:02:00,94.1,39.4,29.62,ENE,75,3.0,3.0,15,0.00,,,0.00,606,WeatherCatV1.02B3,2013-08-26 23:02:00,
2013-08-26 16:07:00,93.8,40.8,29.62,ENE,62,1.0,3.0,16,0.00,,,0.00,592,WeatherCatV1.02B3,2013-08-26 23:07:00,
2013-08-26 16:12:00,93.7,37.3,29.62,ESE,102,1.0,2.0,14,0.00,,,0.00,577,WeatherCatV1.02B3,2013-08-26 23:12:00,
2013-08-26 16:17:00,93.7,39.0,29.62,NE,55,3.0,4.0,15,0.00,,,0.00,563,WeatherCatV1.02B3,2013-08-26 23:17:00,
2013-08-26 16:22:00,93.6,39.0,29.62,NNE,19,2.0,3.0,15,0.00,,,0.00,543,WeatherCatV1.02B3,2013-08-26 23:22:00,
2013-08-26 16:27:00,94.1,39.4,29.62,ENE,66,1.0,3.0,15,0.00,,,0.00,527,WeatherCatV1.02B3,2013-08-26 23:27:00,
2013-08-26 16:32:00,93.2,43.3,29.62,ESE,119,3.0,4.0,18,0.00,,,0.00,513,WeatherCatV1.02B3,2013-08-26 23:32:00,
2013-08-26 16:37:00,93.2,40.3,29.62,ENE,63,1.0,2.0,16,0.00,,,0.00,497,WeatherCatV1.02B3,2013-08-26 23:37:00,
2013-08-26 16:42:00,93.0,43.2,29.62,West,277,3.0,6.0,18,0.00,,,0.00,487,WeatherCatV1.02B3,2013-08-26 23:42:00,
2013-08-26 16:47:00,92.8,40.0,29.62,East,88,0.0,3.0,16,0.00,,,0.00,476,WeatherCatV1.02B3,2013-08-26 23:47:00,
2013-08-26 16:52:00,92.9,41.6,29.62,WNW,300,0.0,2.0,17,0.00,,,0.00,459,WeatherCatV1.02B3,2013-08-26 23:52:00,
2013-08-26 16:57:00,92.4,39.7,29.62,East,87,1.0,2.0,16,0.00,,,0.00,441,WeatherCatV1.02B3,2013-08-26 23:57:00,
2013-08-26 17:02:00,92.2,39.5,29.62,East,94,1.0,2.0,16,0.00,,,0.00,422,WeatherCatV1.02B3,2013-08-27 00:02:00,
2013-08-26 17:07:00,92.1,36.0,29.62,East,89,1.0,2.0,14,0.00,,,0.00,410,WeatherCatV1.02B3,2013-08-27 00:07:00,
2013-08-26 17:12:00,92.2,34.2,29.62,NE,56,1.0,4.0,13,0.00,,,0.00,390,WeatherCatV1.02B3,2013-08-27 00:12:00,
2013-08-26 17:17:00,91.8,35.8,29.62,ENE,67,2.0,3.0,14,0.00,,,0.00,374,WeatherCatV1.02B3,2013-08-27 00:17:00,
2013-08-26 17:22:00,91.6,33.8,29.62,WSW,239,3.0,4.0,13,0.00,,,0.00,359,WeatherCatV1.02B3,2013-08-27 00:22:00,
2013-08-26 17:27:00,91.4,35.5,29.62,East,90,3.0,3.0,14,0.00,,,0.00,343,WeatherCatV1.02B3,2013-08-27 00:27:00,
2013-08-26 17:32:00,91.6,39.0,29.62,NW,314,5.0,5.0,16,0.00,,,0.00,327,WeatherCatV1.02B3,2013-08-27 00:32:00,
2013-08-26 17:37:00,91.1,40.2,29.62,SW,221,2.0,5.0,17,0.00,,,0.00,311,WeatherCatV1.02B3,2013-08-27 00:37:00,
2013-08-26 17:42:00,90.8,41.4,29.62,West,271,7.0,7.0,18,0.00,,,0.00,297,WeatherCatV1.02B3,2013-08-27 00:42:00,
2013-08-26 17:47:00,90.2,43.7,29.62,WSW,255,5.0,5.0,20,0.00,,,0.00,281,WeatherCatV1.02B3,2013-08-27 00:47:00,
2013-08-26 17:52:00,89.8,44.6,29.62,WNW,286,1.0,4.0,21,0.00,,,0.00,264,WeatherCatV1.02B3,2013-08-27 00:52:00,
2013-08-26 17:57:00,89.4,44.3,29.62,West,269,4.0,4.0,21,0.00,,,0.00,248,WeatherCatV1.02B3,2013-08-27 00:57:00,
2013-08-26 18:02:00,89.0,45.2,29.62,NNW,331,1.0,5.0,22,0.00,,,0.00,230,WeatherCatV1.02B3,2013-08-27 01:02:00,
2013-08-26 18:07:00,88.4,45.9,29.62,WSW,253,2.0,6.0,23,0.00,,,0.00,211,WeatherCatV1.02B3,2013-08-27 01:07:00,
2013-08-26 18:12:00,88.1,45.6,29.62,West,269,3.0,6.0,23,0.00,,,0.00,192,WeatherCatV1.02B3,2013-08-27 01:12:00,
2013-08-26 18:17:00,87.7,46.4,29.62,West,259,4.0,5.0,24,0.00,,,0.00,172,WeatherCatV1.02B3,2013-08-27 01:17:00,
2013-08-26 18:22:00,87.1,47.0,29.62,West,266,4.0,5.0,25,0.00,,,0.00,155,WeatherCatV1.02B3,2013-08-27 01:22:00,
2013-08-26 18:27:00,86.7,46.6,29.62,WSW,254,2.0,4.0,25,0.00,,,0.00,135,WeatherCatV1.02B3,2013-08-27 01:27:00,
2013-08-26 18:32:00,86.2,46.2,29.62,WNW,298,1.0,2.0,25,0.00,,,0.00,116,WeatherCatV1.02B3,2013-08-27 01:32:00,
2013-08-26 18:37:00,85.9,46.0,29.62,SW,234,0.0,3.0,25,0.00,,,0.00,97,WeatherCatV1.02B3,2013-08-27 01:37:00,
2013-08-26 18:42:00,85.2,47.4,29.62,WNW,292,2.0,2.0,27,0.00,,,0.00,28,WeatherCatV1.02B3,2013-08-27 01:42:00,
2013-08-26 18:47:00,84.3,48.5,29.62,WNW,289,1.0,4.0,29,0.00,,,0.00,25,WeatherCatV1.02B3,2013-08-27 01:47:00,
2013-08-26 18:52:00,83.5,48.8,29.62,West,281,0.0,1.0,30,0.00,,,0.00,23,WeatherCatV1.02B3,2013-08-27 01:52:00,
2013-08-26 18:57:00,82.7,49.8,29.62,West,281,0.0,1.0,32,0.00,,,0.00,21,WeatherCatV1.02B3,2013-08-27 01:57:00,
2013-08-26 19:02:00,82.1,50.9,29.62,NNW,344,0.0,1.0,34,0.00,,,0.00,19,WeatherCatV1.02B3,2013-08-27 02:02:00,
2013-08-26 19:07:00,81.6,51.3,29.62,North,5,0.0,1.0,35,0.00,,,0.00,18,WeatherCatV1.02B3,2013-08-27 02:07:00,
2013-08-26 19:12:00,80.9,50.7,29.62,North,5,0.0,1.0,35,0.00,,,0.00,14,WeatherCatV1.02B3,2013-08-27 02:12:00,
2013-08-26 19:17:00,80.2,50.0,29.62,North,0,0.0,1.0,35,0.00,,,0.00,12,WeatherCatV1.02B3,2013-08-27 02:17:00,
2013-08-26 19:22:00,79.6,51.0,29.62,North,0,0.0,0.0,37,0.00,,,0.00,9,WeatherCatV1.02B3,2013-08-27 02:22:00,
2013-08-26 19:27:00,78.9,52.5,29.62,North,0,0.0,0.0,40,0.00,,,0.00,5,WeatherCatV1.02B3,2013-08-27 02:27:00,
2013-08-26 19:32:00,78.1,53.1,29.62,North,0,0.0,0.0,42,0.00,,,0.00,0,WeatherCatV1.02B3,2013-08-27 02:32:00,
2013-08-26 19:37:00,77.6,53.3,29.62,North,0,0.0,0.0,43,0.00,,,0.00,0,WeatherCatV1.02B3,2013-08-27 02:37:00,
2013-08-26 19:42:00,76.5,53.6,29.62,North,0,0.0,0.0,45,0.00,,,0.00,0,WeatherCatV1.02B3,2013-08-27 02:42:00,
2013-08-26 19:48:00,76.0,54.3,29.62,North,0,0.0,0.0,47,0.00,,,0.00,0,WeatherCatV1.02B3,2013-08-27 02:48:00,
2013-08-26 19:53:00,75.9,55.3,29.62,NNE,30,0.0,0.0,49,0.00,,,0.00,0,WeatherCatV1.02B3,2013-08-27 02:53:00,
2013-08-26 19:58:00,74.9,54.4,29.62,NNE,30,0.0,0.0,49,0.00,,,0.00,0,WeatherCatV1.02B3,2013-08-27 02:58:00,
2013-08-26 20:03:00,74.2,53.8,29.62,NNE,30,0.0,0.0,49,0.00,,,0.00,0,WeatherCatV1.02B3,2013-08-27 03:03:00,
2013-08-26 20:08:00,74.1,55.3,29.62,NNE,30,0.0,0.0,52,0.00,,,0.00,0,WeatherCatV1.02B3,2013-08-27 03:08:00,
2013-08-26 20:13:00,73.2,56.0,29.62,WSW,250,0.0,1.0,55,0.00,,,0.00,0,WeatherCatV1.02B3,2013-08-27 03:13:00,
2013-08-26 20:18:00,72.6,56.5,29.62,WSW,250,0.0,0.0,57,0.00,,,0.00,0,WeatherCatV1.02B3,2013-08-27 03:18:00,
2013-08-26 20:23:00,72.1,56.0,29.62,WSW,250,0.0,0.0,57,0.00,,,0.00,0,WeatherCatV1.02B3,2013-08-27 03:23:00,
2013-08-26 20:28:00,72.1,56.0,29.62,WSW,250,0.0,0.0,57,0.00,,,0.00,0,WeatherCatV1.02B3,2013-08-27 03:28:00,
2013-08-26 20:33:00,71.7,55.6,29.62,WSW,250,0.0,0.0,57,0.00,,,0.00,0,WeatherCatV1.02B3,2013-08-27 03:33:00,
2013-08-26 20:38:00,71.0,54.0,29.62,WSW,250,0.0,0.0,55,0.00,,,0.00,0,WeatherCatV1.02B3,2013-08-27 03:38:00,
2013-08-26 20:43:00,70.4,54.9,29.62,WSW,250,0.0,0.0,58,0.00,,,0.00,0,WeatherCatV1.02B3,2013-08-27 03:43:00,
2013-08-26 20:48:00,70.5,55.0,29.62,WSW,250,0.0,0.0,58,0.00,,,0.00,0,WeatherCatV1.02B3,2013-08-27 03:48:00,
2013-08-26 20:53:00,69.9,54.4,29.62,WSW,250,0.0,0.0,58,0.00,,,0.00,0,WeatherCatV1.02B3,2013-08-27 03:53:00,
2013-08-26 20:58:00,69.2,54.3,29.62,WSW,250,0.0,0.0,59,0.00,,,0.00,0,WeatherCatV1.02B3,2013-08-27 03:58:00,
2013-08-26 21:01:00,69.2,54.7,29.62,WSW,250,0.0,0.0,60,0.00,,,0.00,0,WeatherCatV1.02B3,2013-08-27 04:01:00,
2013-08-26 21:06:00,69.6,56.0,29.62,WSW,250,0.0,0.0,62,0.00,,,0.00,0,WeatherCatV1.02B3,2013-08-27 04:06:00,
2013-08-26 21:11:00,69.1,55.5,29.62,WSW,250,0.0,0.0,62,0.00,,,0.00,0,WeatherCatV1.02B3,2013-08-27 04:11:00,
2013-08-26 21:16:00,68.9,56.2,29.62,WSW,250,0.0,0.0,64,0.00,,,0.00,0,WeatherCatV1.02B3,2013-08-27 04:16:00,
2013-08-26 21:21:00,68.4,55.3,29.62,WSW,250,0.0,0.0,63,0.00,,,0.00,0,WeatherCatV1.02B3,2013-08-27 04:21:00,
2013-08-26 21:26:00,68.6,55.9,29.62,WSW,250,0.0,0.0,64,0.00,,,0.00,0,WeatherCatV1.02B3,2013-08-27 04:26:00,
2013-08-26 21:31:00,68.7,55.6,29.62,WSW,250,0.0,0.0,63,0.00,,,0.00,0,WeatherCatV1.02B3,2013-08-27 04:31:00,
2013-08-26 21:36:00,68.5,55.4,29.62,WSW,250,0.0,0.0,63,0.00,,,0.00,0,WeatherCatV1.02B3,2013-08-27 04:36:00,
2013-08-26 21:41:00,67.9,53.9,29.62,WSW,250,0.0,0.0,61,0.00,,,0.00,0,WeatherCatV1.02B3,2013-08-27 04:41:00,
2013-08-26 21:46:00,68.0,54.0,29.62,WSW,250,0.0,0.0,61,0.00,,,0.00,0,WeatherCatV1.02B3,2013-08-27 04:46:00,
2013-08-26 21:51:00,68.2,54.7,29.62,WSW,250,0.0,0.0,62,0.00,,,0.00,0,WeatherCatV1.02B3,2013-08-27 04:51:00,
2013-08-26 21:56:00,67.4,53.0,29.62,WSW,250,0.0,0.0,60,0.00,,,0.00,0,WeatherCatV1.02B3,2013-08-27 04:56:00,
2013-08-26 22:01:00,67.5,54.5,29.62,WSW,250,0.0,0.0,63,0.00,,,0.00,0,WeatherCatV1.02B3,2013-08-27 05:01:00,
2013-08-26 22:06:00,67.6,53.7,29.62,WSW,250,0.0,0.0,61,0.00,,,0.00,0,WeatherCatV1.02B3,2013-08-27 05:06:00,
2013-08-26 22:11:00,67.4,54.8,29.62,WSW,250,0.0,0.0,64,0.00,,,0.00,0,WeatherCatV1.02B3,2013-08-27 05:11:00,
2013-08-26 22:16:00,67.1,54.1,29.62,WSW,250,0.0,0.0,63,0.00,,,0.00,0,WeatherCatV1.02B3,2013-08-27 05:16:00,
2013-08-26 22:21:00,66.5,53.5,29.62,WSW,250,0.0,0.0,63,0.00,,,0.00,0,WeatherCatV1.02B3,2013-08-27 05:21:00,
2013-08-26 22:26:00,67.1,54.5,29.62,WSW,250,0.0,0.0,64,0.00,,,0.00,0,WeatherCatV1.02B3,2013-08-27 05:26:00,
2013-08-26 22:31:00,66.9,53.0,29.62,WSW,250,0.0,0.0,61,0.00,,,0.00,0,WeatherCatV1.02B3,2013-08-27 05:31:00,
2013-08-26 22:36:00,66.8,53.4,29.62,WSW,250,0.0,0.0,62,0.00,,,0.00,0,WeatherCatV1.02B3,2013-08-27 05:36:00,
2013-08-26 22:41:00,66.6,52.3,29.62,WSW,250,0.0,0.0,60,0.00,,,0.00,0,WeatherCatV1.02B3,2013-08-27 05:41:00,
2013-08-26 22:46:00,66.6,53.2,29.62,WSW,250,0.0,0.0,62,0.00,,,0.00,0,WeatherCatV1.02B3,2013-08-27 05:46:00,
2013-08-26 22:51:00,66.4,53.8,29.62,WSW,250,0.0,0.0,64,0.00,,,0.00,0,WeatherCatV1.02B3,2013-08-27 05:51:00,
2013-08-26 22:56:00,65.8,54.1,29.62,WSW,250,0.0,0.0,66,0.00,,,0.00,0,WeatherCatV1.02B3,2013-08-27 05:56:00,
2013-08-26 23:01:00,65.6,53.9,29.62,WSW,250,0.0,0.0,66,0.00,,,0.00,0,WeatherCatV1.02B3,2013-08-27 06:01:00,
2013-08-26 23:06:00,65.7,54.0,29.62,WSW,250,0.0,0.0,66,0.00,,,0.00,0,WeatherCatV1.02B3,2013-08-27 06:06:00,
2013-08-26 23:11:00,65.5,53.4,29.62,WSW,250,0.0,0.0,65,0.00,,,0.00,0,WeatherCatV1.02B3,2013-08-27 06:11:00,
2013-08-26 23:16:00,65.8,52.8,29.62,WSW,250,0.0,1.0,63,0.00,,,0.00,0,WeatherCatV1.02B3,2013-08-27 06:16:00,
2013-08-26 23:21:00,65.9,52.5,29.62,WSW,250,0.0,0.0,62,0.00,,,0.00,0,WeatherCatV1.02B3,2013-08-27 06:21:00,
2013-08-26 23:26:00,66.4,53.4,29.62,WSW,250,0.0,0.0,63,0.00,,,0.00,0,WeatherCatV1.02B3,2013-08-27 06:26:00,
2013-08-26 23:31:00,66.7,52.8,29.62,WSW,250,0.0,0.0,61,0.00,,,0.00,0,WeatherCatV1.02B3,2013-08-27 06:31:00,
2013-08-26 23:36:00,66.7,55.0,29.62,WSW,250,0.0,1.0,66,0.00,,,0.00,0,WeatherCatV1.02B3,2013-08-27 06:36:00,
2013-08-26 23:41:00,66.4,55.9,29.62,WSW,250,0.0,0.0,69,0.00,,,0.00,0,WeatherCatV1.02B3,2013-08-27 06:41:00,
2013-08-26 23:46:00,66.2,55.7,29.62,WSW,250,0.0,0.0,69,0.00,,,0.00,0,WeatherCatV1.02B3,2013-08-27 06:46:00,
2013-08-26 23:51:00,66.3,55.4,29.62,WSW,250,0.0,0.0,68,0.00,,,0.00,0,WeatherCatV1.02B3,2013-08-27 06:51:00,
2013-08-26 23:56:00,66.4,55.1,29.62,WSW,250,0.0,0.0,67,0.00,,,0.00,0,WeatherCatV1.02B3,2013-08-27 06:56:00,